Time;durP1;ratioP1;P1;durP2;ratioP2;P2;SDS_P1;SDS_P2;PMS_P1;PMS_P2;Temp;Humidity;BMP_temperature;BMP_pressure;BME280_temperature;BME280_humidity;BME280_pressure;Samples;Min_cycle;Max_cycle;Signal;HPM_P1;HPM_P2
2022/12/13 00:01:38;;;;;;;;;;;;;;;0.86;58.92;99424.25;5039429;28;20433;-54
2022/12/13 00:04:04;;;;;;;;;;;;;;;0.72;59.51;99437.16;5038419;28;20288;-55
2022/12/13 00:06:30;;;;;;;;;;;;;;;0.97;59.03;99443.25;5037748;28;19956;-55
2022/12/13 00:08:56;;;;;;;;;;;;;;;0.71;59.82;99440.59;5038633;28;20372;-52
2022/12/13 00:11:21;;;;;;;;;;;;;;;0.79;60.28;99433.72;5038298;28;19921;-53
2022/12/13 00:13:47;;;;;;;;;;;;;;;0.75;60.06;99437.16;5038269;28;19926;-53
2022/12/13 00:16:16;;;;;;;;;;;;;;;0.74;60.13;99435.44;5038172;28;19921;-55
2022/12/13 00:18:42;;;;;;;;;;;;;;;0.82;59.84;99443.22;5051860;28;19966;-51
2022/12/13 00:21:10;;;;;;;;;;;;;;;0.72;60.44;99440.63;5051188;28;20007;-52
2022/12/13 00:23:35;;;;;;;;;;;;;;;0.73;60.27;99444.06;5049685;28;20025;-51
2022/12/13 00:26:05;;;;;;;;;;;;;;;0.99;59.61;99454.47;5037301;28;20400;-52
2022/12/13 00:28:30;;;;;;;;;;;;;;;1.06;59.40;99453.63;5050785;28;20374;-53
2022/12/13 00:30:56;;;;;;;;;;;;;;;1.22;59.14;99449.34;5052359;28;20423;-53
2022/12/13 00:33:22;;;;;;;;;;;;;;;1.26;58.91;99439.84;5050482;28;19927;-53
2022/12/13 00:35:47;;;;;;;;;;;;;;;0.93;59.80;99444.13;5038000;28;19925;-51
2022/12/13 00:38:12;;;;;;;;;;;;;;;0.97;59.43;99456.19;5037856;28;19967;-50
2022/12/13 00:40:37;;;;;;;;;;;;;;;0.86;59.42;99452.72;5038887;28;20300;-51
2022/12/13 00:43:03;;;;;;;;;;;;;;;1.01;59.55;99457.06;5037619;28;19925;-54
2022/12/13 00:45:28;;;;;;;;;;;;;;;0.98;59.39;99455.31;5038667;28;20352;-52
2022/12/13 00:47:53;;;;;;;;;;;;;;;1.14;59.03;99453.63;5040567;28;19929;-52
2022/12/13 00:50:18;;;;;;;;;;;;;;;1.28;58.73;99443.28;5049423;28;19931;-52
2022/12/13 00:52:44;;;;;;;;;;;;;;;1.46;58.42;99449.34;5050173;28;19929;-51
2022/12/13 00:55:09;;;;;;;;;;;;;;;1.14;58.75;99445.88;5051950;28;19970;-53
2022/12/13 00:57:34;;;;;;;;;;;;;;;1.33;58.33;99462.28;5050696;28;20292;-50
2022/12/13 00:59:59;;;;;;;;;;;;;;;1.59;57.90;99460.56;5051925;28;20368;-53
2022/12/13 01:02:25;;;;;;;;;;;;;;;1.49;57.99;99453.69;5048301;28;19920;-53
2022/12/13 01:04:50;;;;;;;;;;;;;;;1.61;57.88;99451.09;5051939;28;19924;-50
2022/12/13 01:07:16;;;;;;;;;;;;;;;1.51;57.97;99454.53;5049742;28;19925;-54
2022/12/13 01:09:41;;;;;;;;;;;;;;;1.49;58.03;99458.84;5050098;28;19928;-53
2022/12/13 01:12:07;;;;;;;;;;;;;;;1.50;58.28;99462.28;5051699;28;19928;-51
2022/12/13 01:14:37;;;;;;;;;;;;;;;1.65;57.87;99455.41;5049854;28;19927;-54
2022/12/13 01:17:02;;;;;;;;;;;;;;;1.63;58.11;99443.31;5051164;28;19928;-53
2022/12/13 01:19:28;;;;;;;;;;;;;;;1.80;57.62;99453.69;5049002;28;19917;-53
2022/12/13 01:21:53;;;;;;;;;;;;;;;1.52;58.41;99458.84;5051695;28;19967;-50
2022/12/13 01:24:20;;;;;;;;;;;;;;;1.85;57.66;99451.94;5050540;28;20364;-50
2022/12/13 01:26:45;;;;;;;;;;;;;;;1.98;57.39;99457.06;5050881;28;19925;-51
2022/12/13 01:29:11;;;;;;;;;;;;;;;1.84;57.57;99456.25;5050917;28;19928;-52
2022/12/13 01:31:40;;;;;;;;;;;;;;;1.88;57.90;99452.78;5048732;28;20377;-50
2022/12/13 01:34:09;;;;;;;;;;;;;;;1.57;58.69;99462.31;5051023;28;19921;-51
2022/12/13 01:36:35;;;;;;;;;;;;;;;1.72;58.73;99453.69;5049566;28;19925;-50
2022/12/13 01:39:00;;;;;;;;;;;;;;;1.81;58.69;99455.38;5051062;28;20062;-50
2022/12/13 01:41:27;;;;;;;;;;;;;;;1.60;58.91;99451.94;5049333;28;20004;-51
2022/12/13 01:43:53;;;;;;;;;;;;;;;1.79;58.42;99455.38;5038384;28;19924;-50
2022/12/13 01:46:19;;;;;;;;;;;;;;;2.00;58.21;99456.25;5033122;28;19917;-51
2022/12/13 01:49:00;;;;;;;;;;;;;;;1.67;59.16;99447.63;5034598;28;19928;-52
2022/12/13 01:51:32;;;;;;;;;;;;;;;1.92;58.76;99459.69;5034591;28;19923;-51
2022/12/13 01:54:00;;;;;;;;;;;;;;;1.96;58.81;99466.59;5034786;28;19928;-53
2022/12/13 01:56:30;;;;;;;;;;;;;;;1.82;59.32;99464.88;5034440;28;19921;-51
2022/12/13 01:58:56;;;;;;;;;;;;;;;1.70;60.06;99464.00;5040203;28;19923;-50
2022/12/13 02:01:23;;;;;;;;;;;;;;;1.71;60.10;99454.50;5054342;28;19927;-52
2022/12/13 02:03:48;;;;;;;;;;;;;;;1.69;59.92;99457.13;5039552;28;19917;-52
2022/12/13 02:06:18;;;;;;;;;;;;;;;1.28;60.56;99454.53;5034139;28;20031;-52
2022/12/13 02:08:45;;;;;;;;;;;;;;;1.22;61.53;99455.38;5032976;28;20107;-53
2022/12/13 02:11:11;;;;;;;;;;;;;;;1.26;61.08;99461.41;5034622;28;20361;-53
2022/12/13 02:13:37;;;;;;;;;;;;;;;1.29;61.14;99455.38;5039060;28;19921;-52
2022/12/13 02:16:21;;;;;;;;;;;;;;;1.60;60.33;99462.31;5037727;28;19925;-52
2022/12/13 02:18:46;;;;;;;;;;;;;;;1.87;59.56;99460.53;5033816;28;20270;-52
2022/12/13 02:21:21;;;;;;;;;;;;;;;1.73;59.46;99457.97;5034035;28;19924;-55
2022/12/13 02:24:08;;;;;;;;;;;;;;;1.57;59.80;99464.03;5053491;28;19920;-54
2022/12/13 02:26:52;;;;;;;;;;;;;;;1.68;59.37;99462.31;5069247;28;20423;-54
2022/12/13 02:29:32;;;;;;;;;;;;;;;1.92;58.93;99464.88;5036258;28;20023;-55
2022/12/13 02:31:58;;;;;;;;;;;;;;;1.82;58.69;99462.28;5044729;28;19917;-53
2022/12/13 02:34:25;;;;;;;;;;;;;;;1.94;58.41;99463.13;5033667;28;19971;-51
2022/12/13 02:37:00;;;;;;;;;;;;;;;1.86;58.26;99461.41;5047847;28;20030;-54
2022/12/13 02:39:28;;;;;;;;;;;;;;;1.61;58.28;99464.03;5053741;28;19966;-55
2022/12/13 02:41:58;;;;;;;;;;;;;;;1.78;58.11;99465.75;5053563;28;19916;-55
2022/12/13 02:44:26;;;;;;;;;;;;;;;1.77;57.92;99464.03;5053433;28;19923;-54
2022/12/13 02:46:56;;;;;;;;;;;;;;;1.59;58.50;99481.28;5049985;28;19916;-54
2022/12/13 02:49:23;;;;;;;;;;;;;;;1.61;58.25;99478.72;5046308;28;19921;-55
2022/12/13 02:51:50;;;;;;;;;;;;;;;1.67;58.20;99479.56;5042047;28;19924;-54
2022/12/13 02:54:15;;;;;;;;;;;;;;;1.77;57.85;99469.22;5049361;28;19933;-54
2022/12/13 02:56:40;;;;;;;;;;;;;;;1.86;57.76;99471.78;5048498;28;19925;-51
2022/12/13 02:59:10;;;;;;;;;;;;;;;1.84;57.50;99470.94;5045644;28;20041;-55
2022/12/13 03:01:42;;;;;;;;;;;;;;;1.64;58.02;99478.72;5048743;28;19921;-55
2022/12/13 03:04:13;;;;;;;;;;;;;;;1.59;57.88;99475.25;5040460;28;19931;-55
2022/12/13 03:06:38;;;;;;;;;;;;;;;1.62;57.81;99485.59;5053410;28;19916;-54
2022/12/13 03:09:23;;;;;;;;;;;;;;;1.48;58.29;99470.94;5050472;28;19990;-54
2022/12/13 03:14:38;;;;;;;;;;;;;;;1.46;58.47;99476.97;5051853;28;20387;-54
2022/12/13 03:17:04;;;;;;;;;;;;;;;1.90;57.67;99470.91;5047891;28;19920;-50
2022/12/13 03:19:30;;;;;;;;;;;;;;;1.73;57.83;99461.44;5037757;28;19921;-53
2022/12/13 03:21:55;;;;;;;;;;;;;;;1.47;58.19;99476.09;5039451;28;20383;-54
2022/12/13 03:24:21;;;;;;;;;;;;;;;1.56;58.26;99476.13;5040046;28;19922;-55
2022/12/13 03:26:47;;;;;;;;;;;;;;;1.82;57.95;99468.31;5033039;28;19917;-51
2022/12/13 03:29:12;;;;;;;;;;;;;;;1.66;57.92;99459.69;5045434;28;19927;-53
2022/12/13 03:31:38;;;;;;;;;;;;;;;1.83;57.71;99464.00;5047250;28;20015;-51
2022/12/13 03:34:03;;;;;;;;;;;;;;;1.77;57.71;99474.38;5034750;28;19925;-50
2022/12/13 03:36:28;;;;;;;;;;;;;;;1.78;57.69;99470.94;5036271;28;20027;-52
2022/12/13 03:38:54;;;;;;;;;;;;;;;1.51;58.39;99477.81;5035463;28;19936;-51
2022/12/13 03:41:21;;;;;;;;;;;;;;;1.65;58.12;99473.53;5037088;28;20311;-50
2022/12/13 03:43:47;;;;;;;;;;;;;;;1.72;58.12;99482.16;5039133;28;19921;-51
2022/12/13 03:46:12;;;;;;;;;;;;;;;1.86;57.64;99477.81;5038711;28;19983;-51
2022/12/13 03:48:37;;;;;;;;;;;;;;;1.93;57.43;99469.19;5046055;28;20288;-51
2022/12/13 03:51:03;;;;;;;;;;;;;;;1.91;57.51;99477.81;5052820;28;19960;-54
2022/12/13 03:53:29;;;;;;;;;;;;;;;1.69;57.74;99469.22;5041154;28;20315;-51
2022/12/13 03:55:54;;;;;;;;;;;;;;;1.65;58.19;99468.34;5056523;28;19940;-52
2022/12/13 03:58:20;;;;;;;;;;;;;;;1.82;57.55;99480.41;5046460;28;19971;-53
2022/12/13 04:00:45;;;;;;;;;;;;;;;1.58;57.98;99479.56;5036966;28;19940;-55
2022/12/13 04:03:13;;;;;;;;;;;;;;;1.64;57.94;99479.56;5037281;28;20239;-52
2022/12/13 04:05:38;;;;;;;;;;;;;;;1.46;58.13;99482.13;5066785;28;20025;-53
2022/12/13 04:08:04;;;;;;;;;;;;;;;1.63;57.85;99487.31;5056003;28;19924;-54
2022/12/13 04:10:29;;;;;;;;;;;;;;;1.51;58.24;99489.91;5056497;28;19976;-52
2022/12/13 04:15:38;;;;;;;;;;;;;;;1.56;58.02;99491.66;5036195;28;20335;-53
2022/12/13 04:18:04;;;;;;;;;;;;;;;1.46;57.92;99490.78;5039349;28;19917;-51
2022/12/13 04:20:29;;;;;;;;;;;;;;;1.55;57.64;99494.22;5046384;28;19991;-52
2022/12/13 04:22:54;;;;;;;;;;;;;;;1.80;57.31;99480.44;5052572;28;20399;-50
2022/12/13 04:25:20;;;;;;;;;;;;;;;2.00;56.56;99484.75;5047447;28;19933;-54
2022/12/13 04:27:45;;;;;;;;;;;;;;;1.77;56.88;99489.94;5040452;28;19925;-50
2022/12/13 04:30:11;;;;;;;;;;;;;;;1.71;56.88;99495.94;5051130;28;20377;-53
2022/12/13 04:32:36;;;;;;;;;;;;;;;1.58;57.11;99484.75;5038874;28;20313;-53
2022/12/13 04:35:01;;;;;;;;;;;;;;;1.72;56.55;99495.97;5038004;28;20281;-53
2022/12/13 04:37:27;;;;;;;;;;;;;;;1.82;56.33;99495.97;5038263;28;19924;-54
2022/12/13 04:39:52;;;;;;;;;;;;;;;1.94;56.02;99496.81;5036737;28;19921;-55
2022/12/13 04:42:17;;;;;;;;;;;;;;;1.63;56.46;99489.91;5051273;28;19929;-52
2022/12/13 04:44:43;;;;;;;;;;;;;;;1.75;56.35;99497.69;5051584;28;19925;-52
2022/12/13 04:47:08;;;;;;;;;;;;;;;1.62;56.72;99502.00;5050093;28;19940;-53
2022/12/13 04:49:33;;;;;;;;;;;;;;;1.81;56.34;99507.19;5052155;28;20372;-54
2022/12/13 04:51:59;;;;;;;;;;;;;;;1.64;56.23;99512.38;5042222;28;19924;-53
2022/12/13 04:54:24;;;;;;;;;;;;;;;1.70;56.29;99505.47;5035836;28;20348;-52
2022/12/13 04:56:50;;;;;;;;;;;;;;;1.70;56.44;99507.19;5037278;28;19937;-55
2022/12/13 04:59:15;;;;;;;;;;;;;;;1.58;56.13;99510.63;5038543;28;20384;-51
2022/12/13 05:01:41;;;;;;;;;;;;;;;1.53;56.70;99506.31;5037217;28;19917;-52
2022/12/13 05:04:06;;;;;;;;;;;;;;;1.30;56.82;99503.69;5037189;28;20340;-53
2022/12/13 05:06:31;;;;;;;;;;;;;;;1.23;56.88;99508.84;5037489;28;20357;-54
2022/12/13 05:08:57;;;;;;;;;;;;;;;1.42;56.73;99501.13;5036647;28;19971;-54
2022/12/13 05:11:22;;;;;;;;;;;;;;;1.42;56.84;99508.88;5037483;28;20031;-52
2022/12/13 05:13:47;;;;;;;;;;;;;;;1.27;56.20;99503.69;5037288;28;19933;-52
2022/12/13 05:16:14;;;;;;;;;;;;;;;1.45;56.08;99496.81;5049255;28;19921;-53
2022/12/13 05:18:40;;;;;;;;;;;;;;;1.67;55.58;99500.25;5050885;28;20372;-54
2022/12/13 05:21:07;;;;;;;;;;;;;;;1.68;55.70;99501.16;5053980;28;19932;-53
2022/12/13 05:23:32;;;;;;;;;;;;;;;1.59;55.59;99502.00;5042592;28;19921;-53
2022/12/13 05:25:57;;;;;;;;;;;;;;;1.76;54.90;99502.03;5038108;28;19932;-51
2022/12/13 05:28:25;;;;;;;;;;;;;;;1.62;55.09;99509.78;5036920;28;19921;-51
2022/12/13 05:30:50;;;;;;;;;;;;;;;1.35;55.43;99496.78;5039068;28;19999;-54
2022/12/13 05:33:16;;;;;;;;;;;;;;;1.35;55.51;99518.34;5034720;28;20016;-53
2022/12/13 05:35:41;;;;;;;;;;;;;;;1.61;55.21;99510.63;5036065;28;19977;-52
2022/12/13 05:38:06;;;;;;;;;;;;;;;1.28;55.17;99511.47;5033713;28;19926;-57
2022/12/13 05:40:32;;;;;;;;;;;;;;;1.55;55.11;99512.34;5035101;28;20450;-51
2022/12/13 05:42:57;;;;;;;;;;;;;;;1.50;55.31;99514.94;5049447;28;19929;-55
2022/12/13 05:45:23;;;;;;;;;;;;;;;1.43;55.32;99523.56;5041911;28;19920;-50
2022/12/13 05:47:48;;;;;;;;;;;;;;;1.76;55.18;99503.75;5043807;28;19956;-51
2022/12/13 05:50:14;;;;;;;;;;;;;;;1.62;55.25;99512.34;5035018;28;20019;-50
2022/12/13 05:52:40;;;;;;;;;;;;;;;1.59;55.13;99509.75;5036778;28;19929;-50
2022/12/13 05:55:06;;;;;;;;;;;;;;;1.81;55.00;99504.59;5042876;28;20384;-50
2022/12/13 05:57:31;;;;;;;;;;;;;;;1.83;54.77;99511.50;5037573;28;20016;-53
2022/12/13 05:59:57;;;;;;;;;;;;;;;1.91;54.74;99509.75;5039442;28;19925;-52
2022/12/13 06:02:23;;;;;;;;;;;;;;;1.88;54.88;99512.38;5041585;28;19920;-50
2022/12/13 06:04:48;;;;;;;;;;;;;;;1.97;54.64;99508.91;5045706;28;19925;-51
2022/12/13 06:07:13;;;;;;;;;;;;;;;1.82;55.09;99504.59;5044685;28;19940;-53
2022/12/13 06:09:38;;;;;;;;;;;;;;;1.76;55.46;99520.16;5042958;28;20367;-52
2022/12/13 06:12:04;;;;;;;;;;;;;;;1.84;55.31;99526.19;5037024;28;19923;-51
2022/12/13 06:14:29;;;;;;;;;;;;;;;1.94;55.44;99514.94;5048043;28;19921;-52
2022/12/13 06:16:55;;;;;;;;;;;;;;;1.69;55.89;99519.28;5039305;28;19928;-50
2022/12/13 06:19:22;;;;;;;;;;;;;;;1.57;56.35;99524.44;5034783;28;19932;-54
2022/12/13 06:21:48;;;;;;;;;;;;;;;1.75;56.03;99522.72;5037387;28;20389;-51
2022/12/13 06:24:17;;;;;;;;;;;;;;;1.69;56.44;99533.97;5053279;28;19916;-55
2022/12/13 06:26:43;;;;;;;;;;;;;;;1.58;56.63;99531.34;5047532;28;19928;-52
2022/12/13 06:29:09;;;;;;;;;;;;;;;1.43;57.07;99534.75;5038653;28;19925;-55
2022/12/13 06:31:34;;;;;;;;;;;;;;;1.56;56.71;99547.75;5044468;28;19952;-51
2022/12/13 06:34:00;;;;;;;;;;;;;;;1.78;56.57;99533.09;5054368;28;20015;-52
2022/12/13 06:36:25;;;;;;;;;;;;;;;1.79;56.52;99535.66;5034590;28;20019;-53
2022/12/13 06:38:51;;;;;;;;;;;;;;;1.59;56.67;99547.75;5033927;28;20024;-54
2022/12/13 06:41:16;;;;;;;;;;;;;;;1.53;57.18;99538.25;5033808;28;19921;-54
2022/12/13 06:43:45;;;;;;;;;;;;;;;1.50;57.35;99547.72;5033709;28;20348;-54
2022/12/13 06:46:10;;;;;;;;;;;;;;;1.50;57.48;99558.09;5033786;28;19944;-57
2022/12/13 06:48:36;;;;;;;;;;;;;;;1.41;58.26;99558.94;5033941;28;19917;-56
2022/12/13 06:51:02;;;;;;;;;;;;;;;1.44;58.30;99556.38;5033846;28;19918;-52
2022/12/13 06:53:28;;;;;;;;;;;;;;;1.51;58.14;99565.84;5032501;28;19964;-54
2022/12/13 06:55:53;;;;;;;;;;;;;;;1.69;57.62;99565.91;5033435;28;19972;-56
2022/12/13 06:58:19;;;;;;;;;;;;;;;1.64;57.66;99561.59;5033718;28;19921;-52
2022/12/13 07:00:44;;;;;;;;;;;;;;;1.86;57.17;99572.81;5035624;28;19922;-53
2022/12/13 07:03:10;;;;;;;;;;;;;;;1.76;57.39;99576.28;5053582;28;20019;-51
2022/12/13 07:05:37;;;;;;;;;;;;;;;1.87;57.39;99569.34;5053638;28;19932;-53
2022/12/13 07:08:02;;;;;;;;;;;;;;;1.97;57.02;99576.28;5053863;28;20015;-55
2022/12/13 07:10:27;;;;;;;;;;;;;;;1.95;56.86;99570.22;5052096;28;20006;-54
2022/12/13 07:12:53;;;;;;;;;;;;;;;1.77;57.75;99567.63;5053079;28;20015;-52
2022/12/13 07:15:18;;;;;;;;;;;;;;;1.53;58.22;99566.72;5053138;28;19921;-53
2022/12/13 07:17:43;;;;;;;;;;;;;;;1.72;57.71;99575.41;5055146;28;20364;-54
2022/12/13 07:20:09;;;;;;;;;;;;;;;1.81;57.69;99579.72;5034180;28;19929;-54
2022/12/13 07:22:35;;;;;;;;;;;;;;;1.81;57.41;99584.91;5045215;28;19916;-52
2022/12/13 07:25:02;;;;;;;;;;;;;;;1.83;57.41;99596.97;5054432;28;19921;-53
2022/12/13 07:27:27;;;;;;;;;;;;;;;1.82;57.32;99587.47;5046075;28;19932;-55
2022/12/13 07:29:52;;;;;;;;;;;;;;;1.86;57.21;99597.00;5045051;28;19925;-55
2022/12/13 07:32:18;;;;;;;;;;;;;;;1.59;57.99;99602.97;5035750;28;19975;-56
2022/12/13 07:34:44;;;;;;;;;;;;;;;1.68;57.65;99603.03;5036952;28;19921;-54
2022/12/13 07:37:09;;;;;;;;;;;;;;;1.72;57.60;99601.31;5037494;28;20264;-51
2022/12/13 07:39:34;;;;;;;;;;;;;;;1.72;57.46;99609.06;5036700;28;20107;-54
2022/12/13 07:41:59;;;;;;;;;;;;;;;1.60;57.93;99601.28;5035835;28;19928;-51
2022/12/13 07:44:25;;;;;;;;;;;;;;;1.75;57.62;99613.38;5037036;28;19971;-54
2022/12/13 07:46:51;;;;;;;;;;;;;;;1.86;57.45;99611.66;5035441;28;20353;-55
2022/12/13 07:49:16;;;;;;;;;;;;;;;1.96;57.05;99622.06;5036932;28;19921;-55
2022/12/13 07:51:41;;;;;;;;;;;;;;;1.98;56.80;99616.88;5038263;28;19921;-52
2022/12/13 07:54:07;;;;;;;;;;;;;;;2.03;56.66;99619.44;5039002;28;19987;-51
2022/12/13 07:56:33;;;;;;;;;;;;;;;1.71;57.38;99617.69;5043329;28;20447;-53
2022/12/13 07:58:58;;;;;;;;;;;;;;;1.89;57.08;99624.63;5054638;28;20383;-51
2022/12/13 08:01:23;;;;;;;;;;;;;;;2.17;56.56;99626.38;5037136;28;19932;-52
2022/12/13 08:03:49;;;;;;;;;;;;;;;2.20;56.33;99633.31;5050221;28;19925;-51
2022/12/13 08:06:14;;;;;;;;;;;;;;;2.34;56.02;99628.97;5056349;28;20291;-52
2022/12/13 08:08:39;;;;;;;;;;;;;;;2.43;55.63;99641.06;5055954;28;19963;-51
2022/12/13 08:11:09;;;;;;;;;;;;;;;2.38;56.21;99638.47;5055892;28;20380;-51
2022/12/13 08:13:34;;;;;;;;;;;;;;;2.62;55.76;99641.91;5054715;28;20377;-54
2022/12/13 08:16:00;;;;;;;;;;;;;;;2.55;55.67;99642.78;5056301;28;19923;-53
2022/12/13 08:18:26;;;;;;;;;;;;;;;2.69;55.44;99648.81;5056204;28;19974;-53
2022/12/13 08:20:56;;;;;;;;;;;;;;;2.43;55.49;99641.94;5055961;28;19928;-55
2022/12/13 08:23:21;;;;;;;;;;;;;;;2.60;55.43;99648.84;5056045;28;19924;-53
2022/12/13 08:25:50;;;;;;;;;;;;;;;2.68;55.35;99650.56;5055849;28;19921;-53
2022/12/13 08:28:16;;;;;;;;;;;;;;;2.18;56.45;99658.34;5055361;28;20057;-54
2022/12/13 08:30:41;;;;;;;;;;;;;;;2.53;55.61;99647.13;5056149;28;19983;-55
2022/12/13 08:33:06;;;;;;;;;;;;;;;2.65;55.47;99662.66;5056352;28;19928;-51
2022/12/13 08:35:32;;;;;;;;;;;;;;;2.27;56.06;99670.44;5055951;28;20395;-55
2022/12/13 08:37:57;;;;;;;;;;;;;;;2.55;55.76;99650.56;5055666;28;19920;-54
2022/12/13 08:40:22;;;;;;;;;;;;;;;2.55;55.73;99655.75;5054466;28;19921;-55
2022/12/13 08:42:48;;;;;;;;;;;;;;;2.58;55.38;99659.19;5055470;28;20434;-54
2022/12/13 08:45:13;;;;;;;;;;;;;;;3.10;54.86;99661.69;5055750;28;19928;-56
2022/12/13 08:47:38;;;;;;;;;;;;;;;3.04;54.42;99660.88;5056024;28;19921;-55
2022/12/13 08:50:04;;;;;;;;;;;;;;;3.15;54.11;99661.69;5054438;28;19921;-56
2022/12/13 08:52:33;;;;;;;;;;;;;;;3.05;54.52;99671.25;5055564;28;19957;-55
2022/12/13 08:54:59;;;;;;;;;;;;;;;3.04;54.46;99669.53;5055525;28;19938;-53
2022/12/13 08:57:24;;;;;;;;;;;;;;;2.81;54.72;99677.34;5054137;28;19992;-55
2022/12/13 08:59:49;;;;;;;;;;;;;;;2.99;54.89;99668.66;5054121;28;19975;-57
2022/12/13 09:02:15;;;;;;;;;;;;;;;2.86;55.01;99673.00;5055289;28;20416;-54
2022/12/13 09:04:40;;;;;;;;;;;;;;;3.18;54.45;99677.25;5049288;28;19921;-56
2022/12/13 09:07:06;;;;;;;;;;;;;;;3.17;54.46;99676.41;5035439;28;19921;-55
2022/12/13 09:09:31;;;;;;;;;;;;;;;2.86;54.75;99679.94;5035751;28;19921;-55
2022/12/13 09:11:57;;;;;;;;;;;;;;;3.07;54.28;99679.91;5035156;28;19921;-55
2022/12/13 09:14:22;;;;;;;;;;;;;;;3.02;54.18;99683.34;5035227;28;19922;-54
2022/12/13 09:16:47;;;;;;;;;;;;;;;3.04;54.36;99682.50;5035353;28;19921;-54
2022/12/13 09:19:12;;;;;;;;;;;;;;;2.75;54.86;99692.03;5035170;28;19921;-55
2022/12/13 09:21:38;;;;;;;;;;;;;;;2.63;55.17;99686.03;5034895;28;20396;-53
2022/12/13 09:24:03;;;;;;;;;;;;;;;3.08;54.81;99685.97;5034612;28;19975;-56
2022/12/13 09:26:29;;;;;;;;;;;;;;;2.81;54.78;99681.69;5035030;28;19971;-56
2022/12/13 09:28:54;;;;;;;;;;;;;;;2.70;55.03;99686.88;5034924;28;19920;-55
2022/12/13 09:31:19;;;;;;;;;;;;;;;2.97;54.97;99683.38;5035334;28;19960;-54
2022/12/13 09:33:45;;;;;;;;;;;;;;;3.44;54.07;99682.38;5035171;28;20016;-52
2022/12/13 09:36:13;;;;;;;;;;;;;;;3.22;53.94;99690.22;5034910;28;19924;-55
2022/12/13 09:38:38;;;;;;;;;;;;;;;3.56;53.47;99687.53;5034129;28;20292;-55
2022/12/13 09:41:18;;;;;;;;;;;;;;;3.51;53.35;99685.78;5035162;28;19928;-54
2022/12/13 09:43:45;;;;;;;;;;;;;;;3.58;53.09;99693.56;5034527;28;19923;-55
2022/12/13 09:46:16;;;;;;;;;;;;;;;3.54;53.13;99688.38;5034882;28;19921;-56
2022/12/13 09:48:41;;;;;;;;;;;;;;;3.68;52.83;99689.19;5034782;28;19924;-54
2022/12/13 09:51:08;;;;;;;;;;;;;;;3.38;53.38;99695.38;5033308;28;19925;-53
2022/12/13 09:53:33;;;;;;;;;;;;;;;3.45;53.00;99697.09;5034406;28;19975;-54
2022/12/13 09:55:58;;;;;;;;;;;;;;;3.50;52.96;99694.47;5033987;28;19929;-54
2022/12/13 09:58:28;;;;;;;;;;;;;;;3.62;53.11;99695.28;5034260;28;19922;-52
2022/12/13 10:00:54;;;;;;;;;;;;;;;3.91;52.67;99694.25;5034167;28;19941;-53
2022/12/13 10:03:20;;;;;;;;;;;;;;;3.87;52.42;99697.75;5033873;28;19922;-53
2022/12/13 10:06:11;;;;;;;;;;;;;;;3.83;52.46;99696.94;5034207;28;20008;-53
2022/12/13 10:08:43;;;;;;;;;;;;;;;3.73;52.63;99702.16;5034400;28;20388;-53
2022/12/13 10:11:16;;;;;;;;;;;;;;;3.90;52.72;99690.81;5034306;28;19917;-54
2022/12/13 10:13:44;;;;;;;;;;;;;;;3.59;53.05;99690.13;5034644;28;19925;-54
2022/12/13 10:16:17;;;;;;;;;;;;;;;3.52;53.04;99693.59;5034239;28;19987;-57
2022/12/13 10:18:42;;;;;;;;;;;;;;;3.80;52.62;99690.88;5034301;28;19917;-52
2022/12/13 10:21:19;;;;;;;;;;;;;;;3.67;53.00;99688.34;5034047;28;19963;-53
2022/12/13 10:23:44;;;;;;;;;;;;;;;3.49;53.32;99696.19;5034141;28;19918;-53
2022/12/13 10:26:11;;;;;;;;;;;;;;;3.49;52.98;99698.78;5031820;28;19932;-55
2022/12/13 10:28:36;;;;;;;;;;;;;;;3.51;53.21;99697.06;5033431;28;19921;-53
2022/12/13 10:31:02;;;;;;;;;;;;;;;3.56;53.27;99695.31;5046878;28;20062;-53
2022/12/13 10:33:29;;;;;;;;;;;;;;;3.90;52.79;99690.81;5053453;28;20015;-54
2022/12/13 10:36:27;;;;;;;;;;;;;;;3.95;52.38;99701.19;5053878;28;19917;-53
2022/12/13 10:38:52;;;;;;;;;;;;;;;3.91;51.79;99699.44;5041355;28;19917;-54
2022/12/13 10:41:47;;;;;;;;;;;;;;;3.61;52.79;99700.50;5051864;28;19928;-53
2022/12/13 10:44:19;;;;;;;;;;;;;;;3.58;52.32;99711.75;5048999;28;20391;-53
2022/12/13 10:47:02;;;;;;;;;;;;;;;3.86;52.36;99712.47;5053733;28;19917;-54
2022/12/13 10:49:34;;;;;;;;;;;;;;;3.87;52.26;99719.44;5053986;28;19963;-55
2022/12/13 10:52:00;;;;;;;;;;;;;;;3.94;52.12;99712.44;5055658;28;20530;-56
2022/12/13 10:54:27;;;;;;;;;;;;;;;4.12;51.84;99706.28;5056177;28;20292;-55
2022/12/13 10:56:58;;;;;;;;;;;;;;;4.27;51.25;99716.59;5057287;28;19972;-56
2022/12/13 10:59:35;;;;;;;;;;;;;;;4.40;50.88;99709.56;5057729;28;19923;-55
2022/12/13 11:02:02;;;;;;;;;;;;;;;4.24;51.05;99705.34;5056078;28;19967;-56
2022/12/13 11:04:30;;;;;;;;;;;;;;;4.30;51.15;99706.16;5057750;28;19944;-56
2022/12/13 11:06:57;;;;;;;;;;;;;;;4.59;50.70;99703.34;5057432;28;20346;-53
2022/12/13 11:09:32;;;;;;;;;;;;;;;4.90;50.00;99703.06;5057667;28;20376;-55
2022/12/13 11:12:00;;;;;;;;;;;;;;;5.04;49.61;99706.41;5057035;28;19917;-53
2022/12/13 11:14:31;;;;;;;;;;;;;;;4.76;50.03;99711.00;5052685;28;19921;-56
2022/12/13 11:16:58;;;;;;;;;;;;;;;5.16;49.60;99705.41;5056668;28;20015;-54
2022/12/13 11:19:27;;;;;;;;;;;;;;;4.81;49.85;99719.63;5056948;28;19999;-53
2022/12/13 11:21:53;;;;;;;;;;;;;;;4.81;50.07;99719.63;5052624;28;19920;-56
2022/12/13 11:24:24;;;;;;;;;;;;;;;4.92;49.88;99716.94;5042224;28;19921;-58
2022/12/13 11:26:55;;;;;;;;;;;;;;;4.77;50.41;99711.88;5036826;28;19921;-55
2022/12/13 11:29:49;;;;;;;;;;;;;;;4.37;50.95;99717.38;5057318;28;19948;-55
2022/12/13 11:32:26;;;;;;;;;;;;;;;4.78;50.55;99716.19;5047182;28;19950;-56
2022/12/13 11:35:27;;;;;;;;;;;;;;;4.43;50.93;99712.16;5057667;28;19964;-55
2022/12/13 11:38:04;;;;;;;;;;;;;;;4.35;51.00;99711.31;5023354;28;19980;-57
2022/12/13 11:40:31;;;;;;;;;;;;;;;3.89;52.01;99716.81;5030240;28;19924;-56
2022/12/13 11:43:01;;;;;;;;;;;;;;;4.02;51.96;99720.19;5040504;28;19921;-56
2022/12/13 11:45:28;;;;;;;;;;;;;;;3.83;51.91;99716.81;5056530;28;20055;-56
2022/12/13 11:47:56;;;;;;;;;;;;;;;4.24;51.44;99719.22;5056169;28;20001;-56
2022/12/13 11:50:29;;;;;;;;;;;;;;;3.95;51.36;99735.00;5056751;28;19917;-55
2022/12/13 11:52:58;;;;;;;;;;;;;;;4.16;50.99;99723.59;5056195;28;19921;-53
2022/12/13 11:55:33;;;;;;;;;;;;;;;4.08;50.93;99727.97;5056242;28;20375;-55
2022/12/13 11:58:19;;;;;;;;;;;;;;;4.30;50.88;99733.91;5056807;28;19923;-56
2022/12/13 12:00:56;;;;;;;;;;;;;;;3.50;51.75;99708.31;5035274;28;19912;-55
2022/12/13 12:03:30;;;;;;;;;;;;;;;3.62;52.16;99721.25;5056162;28;19917;-53
2022/12/13 12:06:02;;;;;;;;;;;;;;;3.55;52.45;99727.38;5056768;28;19917;-53
2022/12/13 12:08:46;;;;;;;;;;;;;;;3.31;53.02;99730.00;5056412;28;20070;-51
2022/12/13 12:11:19;;;;;;;;;;;;;;;3.46;52.63;99727.38;5056520;28;19917;-54
2022/12/13 12:14:03;;;;;;;;;;;;;;;3.66;52.25;99737.69;5056473;28;19917;-52
2022/12/13 12:16:32;;;;;;;;;;;;;;;3.78;52.08;99726.38;5056455;28;19924;-54
2022/12/13 12:18:58;;;;;;;;;;;;;;;3.24;53.03;99739.56;5054926;28;20002;-54
2022/12/13 12:21:27;;;;;;;;;;;;;;;3.84;52.27;99735.03;5055834;28;19963;-51
2022/12/13 12:23:55;;;;;;;;;;;;;;;4.09;51.93;99735.75;5055970;28;19917;-53
2022/12/13 12:26:25;;;;;;;;;;;;;;;4.06;51.74;99740.97;5056442;28;19963;-52
2022/12/13 12:29:09;;;;;;;;;;;;;;;3.95;51.59;99748.84;5055971;28;20429;-56
2022/12/13 12:31:53;;;;;;;;;;;;;;;3.93;52.02;99749.72;5056147;28;19939;-55
2022/12/13 12:34:27;;;;;;;;;;;;;;;3.95;51.81;99755.78;5054840;28;19923;-54
2022/12/13 12:37:07;;;;;;;;;;;;;;;3.53;52.53;99762.84;5056345;28;20011;-53
2022/12/13 12:39:42;;;;;;;;;;;;;;;3.76;52.37;99764.53;5055990;28;19953;-53
2022/12/13 12:42:07;;;;;;;;;;;;;;;3.63;52.81;99763.69;5056025;28;20281;-54
2022/12/13 12:44:35;;;;;;;;;;;;;;;3.43;52.78;99774.13;5055956;28;20364;-53
2022/12/13 12:47:08;;;;;;;;;;;;;;;3.37;53.07;99763.78;5055909;28;19916;-54
2022/12/13 12:49:46;;;;;;;;;;;;;;;3.47;52.85;99768.06;5055194;28;20016;-54
2022/12/13 12:52:11;;;;;;;;;;;;;;;3.25;52.89;99776.78;5054480;28;20023;-52
2022/12/13 12:55:02;;;;;;;;;;;;;;;3.41;52.81;99781.06;5053874;28;20028;-53
2022/12/13 12:57:30;;;;;;;;;;;;;;;2.88;53.85;99788.06;5055942;28;19921;-53
2022/12/13 13:00:08;;;;;;;;;;;;;;;3.07;53.57;99788.03;5055853;28;19951;-55
2022/12/13 13:02:41;;;;;;;;;;;;;;;2.87;53.62;99788.03;5054022;28;19916;-53
2022/12/13 13:05:13;;;;;;;;;;;;;;;3.10;53.59;99781.09;5055601;28;19928;-53
2022/12/13 13:07:41;;;;;;;;;;;;;;;3.28;53.25;99793.22;5055417;28;19924;-53